sensor_id;sensor_type;location;lat;lon;timestamp;P1;durP1;ratioP1;P2;durP2;ratioP2
46084;SDS011;31823;47.032;8.310;2023-05-07T00:00:36;4.20;;;3.80;;
46084;SDS011;31823;47.032;8.310;2023-05-07T00:03:02;6.72;;;3.70;;
46084;SDS011;31823;47.032;8.310;2023-05-07T00:05:28;5.65;;;3.55;;
46084;SDS011;31823;47.032;8.310;2023-05-07T00:07:53;7.70;;;4.22;;
46084;SDS011;31823;47.032;8.310;2023-05-07T00:10:19;5.25;;;4.10;;
46084;SDS011;31823;47.032;8.310;2023-05-07T00:12:45;4.80;;;4.20;;
46084;SDS011;31823;47.032;8.310;2023-05-07T00:15:10;5.25;;;3.53;;
46084;SDS011;31823;47.032;8.310;2023-05-07T00:17:36;3.95;;;3.28;;
46084;SDS011;31823;47.032;8.310;2023-05-07T00:20:02;4.18;;;3.78;;
46084;SDS011;31823;47.032;8.310;2023-05-07T00:22:30;7.05;;;3.75;;
46084;SDS011;31823;47.032;8.310;2023-05-07T00:24:57;5.30;;;3.20;;
46084;SDS011;31823;47.032;8.310;2023-05-07T00:27:22;5.82;;;3.92;;
46084;SDS011;31823;47.032;8.310;2023-05-07T00:29:48;6.65;;;3.15;;
46084;SDS011;31823;47.032;8.310;2023-05-07T00:32:14;8.88;;;3.83;;
46084;SDS011;31823;47.032;8.310;2023-05-07T00:34:40;6.93;;;3.28;;
46084;SDS011;31823;47.032;8.310;2023-05-07T00:37:05;5.85;;;3.63;;
46084;SDS011;31823;47.032;8.310;2023-05-07T00:39:34;5.88;;;3.38;;
46084;SDS011;31823;47.032;8.310;2023-05-07T00:42:00;5.60;;;3.50;;
46084;SDS011;31823;47.032;8.310;2023-05-07T00:44:27;8.02;;;3.70;;
46084;SDS011;31823;47.032;8.310;2023-05-07T00:46:54;4.25;;;3.85;;
46084;SDS011;31823;47.032;8.310;2023-05-07T00:49:21;4.65;;;3.35;;
46084;SDS011;31823;47.032;8.310;2023-05-07T00:51:48;8.68;;;3.85;;
46084;SDS011;31823;47.032;8.310;2023-05-07T00:54:14;5.63;;;3.40;;
46084;SDS011;31823;47.032;8.310;2023-05-07T00:56:40;4.40;;;3.30;;
46084;SDS011;31823;47.032;8.310;2023-05-07T00:59:06;8.05;;;3.83;;
46084;SDS011;31823;47.032;8.310;2023-05-07T01:01:31;5.07;;;3.78;;
46084;SDS011;31823;47.032;8.310;2023-05-07T01:03:57;4.70;;;4.00;;
46084;SDS011;31823;47.032;8.310;2023-05-07T01:06:24;5.75;;;4.15;;
46084;SDS011;31823;47.032;8.310;2023-05-07T01:08:52;6.50;;;4.65;;
46084;SDS011;31823;47.032;8.310;2023-05-07T01:11:21;5.07;;;4.43;;
46084;SDS011;31823;47.032;8.310;2023-05-07T01:13:47;6.35;;;4.57;;
46084;SDS011;31823;47.032;8.310;2023-05-07T01:16:15;10.43;;;5.13;;
46084;SDS011;31823;47.032;8.310;2023-05-07T01:18:40;10.18;;;4.20;;
46084;SDS011;31823;47.032;8.310;2023-05-07T01:21:06;4.57;;;3.97;;
46084;SDS011;31823;47.032;8.310;2023-05-07T01:23:35;5.88;;;4.05;;
46084;SDS011;31823;47.032;8.310;2023-05-07T01:26:01;5.18;;;3.70;;
46084;SDS011;31823;47.032;8.310;2023-05-07T01:28:27;7.20;;;4.35;;
46084;SDS011;31823;47.032;8.310;2023-05-07T01:30:53;18.15;;;4.93;;
46084;SDS011;31823;47.032;8.310;2023-05-07T01:33:23;6.45;;;4.78;;
46084;SDS011;31823;47.032;8.310;2023-05-07T01:35:51;5.13;;;4.60;;
46084;SDS011;31823;47.032;8.310;2023-05-07T01:38:18;7.60;;;4.40;;
46084;SDS011;31823;47.032;8.310;2023-05-07T01:40:46;5.35;;;4.50;;
46084;SDS011;31823;47.032;8.310;2023-05-07T01:43:12;9.43;;;4.43;;
46084;SDS011;31823;47.032;8.310;2023-05-07T01:45:37;9.75;;;4.78;;
46084;SDS011;31823;47.032;8.310;2023-05-07T01:48:04;6.70;;;4.25;;
46084;SDS011;31823;47.032;8.310;2023-05-07T01:50:31;6.55;;;4.53;;
46084;SDS011;31823;47.032;8.310;2023-05-07T01:52:57;5.13;;;4.00;;
46084;SDS011;31823;47.032;8.310;2023-05-07T01:55:23;5.03;;;4.20;;
46084;SDS011;31823;47.032;8.310;2023-05-07T01:57:49;4.72;;;3.95;;
46084;SDS011;31823;47.032;8.310;2023-05-07T02:00:15;6.35;;;3.85;;
46084;SDS011;31823;47.032;8.310;2023-05-07T02:02:42;5.82;;;4.07;;
46084;SDS011;31823;47.032;8.310;2023-05-07T02:05:08;8.40;;;4.50;;
46084;SDS011;31823;47.032;8.310;2023-05-07T02:07:33;7.57;;;3.97;;
46084;SDS011;31823;47.032;8.310;2023-05-07T02:09:59;9.32;;;4.28;;
46084;SDS011;31823;47.032;8.310;2023-05-07T02:12:25;5.82;;;4.30;;
46084;SDS011;31823;47.032;8.310;2023-05-07T02:14:50;6.45;;;4.35;;
46084;SDS011;31823;47.032;8.310;2023-05-07T02:17:16;6.93;;;4.28;;
46084;SDS011;31823;47.032;8.310;2023-05-07T02:19:42;7.70;;;4.82;;
46084;SDS011;31823;47.032;8.310;2023-05-07T02:22:07;7.95;;;4.32;;
46084;SDS011;31823;47.032;8.310;2023-05-07T02:24:34;8.95;;;4.57;;
46084;SDS011;31823;47.032;8.310;2023-05-07T02:26:59;5.63;;;4.43;;
46084;SDS011;31823;47.032;8.310;2023-05-07T02:29:25;5.95;;;4.22;;
46084;SDS011;31823;47.032;8.310;2023-05-07T02:31:51;6.10;;;4.13;;
46084;SDS011;31823;47.032;8.310;2023-05-07T02:34:18;5.15;;;3.85;;
46084;SDS011;31823;47.032;8.310;2023-05-07T02:36:43;4.68;;;4.07;;
46084;SDS011;31823;47.032;8.310;2023-05-07T02:39:10;6.65;;;4.47;;
46084;SDS011;31823;47.032;8.310;2023-05-07T02:41:36;7.32;;;4.03;;
46084;SDS011;31823;47.032;8.310;2023-05-07T02:44:02;5.35;;;3.67;;
46084;SDS011;31823;47.032;8.310;2023-05-07T02:46:28;9.55;;;3.75;;
46084;SDS011;31823;47.032;8.310;2023-05-07T02:48:53;7.90;;;3.92;;
46084;SDS011;31823;47.032;8.310;2023-05-07T02:51:20;16.15;;;4.13;;
46084;SDS011;31823;47.032;8.310;2023-05-07T02:53:46;8.18;;;3.55;;
46084;SDS011;31823;47.032;8.310;2023-05-07T02:56:12;6.18;;;3.20;;
46084;SDS011;31823;47.032;8.310;2023-05-07T02:58:38;5.15;;;3.40;;
46084;SDS011;31823;47.032;8.310;2023-05-07T03:01:09;8.68;;;3.55;;
46084;SDS011;31823;47.032;8.310;2023-05-07T03:03:35;6.35;;;3.10;;
46084;SDS011;31823;47.032;8.310;2023-05-07T03:06:01;3.80;;;3.30;;
46084;SDS011;31823;47.032;8.310;2023-05-07T03:08:27;4.47;;;3.17;;
46084;SDS011;31823;47.032;8.310;2023-05-07T03:10:52;5.75;;;3.00;;
46084;SDS011;31823;47.032;8.310;2023-05-07T03:13:18;5.00;;;3.60;;
46084;SDS011;31823;47.032;8.310;2023-05-07T03:15:44;23.13;;;21.08;;
46084;SDS011;31823;47.032;8.310;2023-05-07T03:18:10;23.52;;;21.15;;
46084;SDS011;31823;47.032;8.310;2023-05-07T03:20:35;23.30;;;19.38;;
46084;SDS011;31823;47.032;8.310;2023-05-07T03:23:01;8.63;;;4.50;;
46084;SDS011;31823;47.032;8.310;2023-05-07T03:25:27;7.68;;;3.45;;
46084;SDS011;31823;47.032;8.310;2023-05-07T03:27:54;4.90;;;3.25;;
46084;SDS011;31823;47.032;8.310;2023-05-07T03:30:20;4.10;;;3.30;;
46084;SDS011;31823;47.032;8.310;2023-05-07T03:32:46;4.28;;;3.33;;
46084;SDS011;31823;47.032;8.310;2023-05-07T03:35:11;6.60;;;4.32;;
46084;SDS011;31823;47.032;8.310;2023-05-07T03:37:37;7.35;;;3.47;;
46084;SDS011;31823;47.032;8.310;2023-05-07T03:40:04;6.88;;;4.40;;
46084;SDS011;31823;47.032;8.310;2023-05-07T03:42:30;8.43;;;4.15;;
46084;SDS011;31823;47.032;8.310;2023-05-07T03:44:56;5.93;;;3.50;;
46084;SDS011;31823;47.032;8.310;2023-05-07T03:47:22;5.65;;;4.30;;
46084;SDS011;31823;47.032;8.310;2023-05-07T03:49:47;9.73;;;4.22;;
46084;SDS011;31823;47.032;8.310;2023-05-07T03:52:14;7.68;;;4.10;;
46084;SDS011;31823;47.032;8.310;2023-05-07T03:54:40;5.40;;;3.88;;
46084;SDS011;31823;47.032;8.310;2023-05-07T03:57:05;5.65;;;3.80;;
46084;SDS011;31823;47.032;8.310;2023-05-07T03:59:31;6.85;;;4.30;;
46084;SDS011;31823;47.032;8.310;2023-05-07T04:01:56;4.93;;;3.72;;
46084;SDS011;31823;47.032;8.310;2023-05-07T04:04:22;5.90;;;3.20;;
46084;SDS011;31823;47.032;8.310;2023-05-07T04:06:48;5.90;;;3.65;;
46084;SDS011;31823;47.032;8.310;2023-05-07T04:09:13;4.53;;;3.38;;
46084;SDS011;31823;47.032;8.310;2023-05-07T04:11:39;4.07;;;3.40;;
46084;SDS011;31823;47.032;8.310;2023-05-07T04:14:05;3.33;;;2.80;;
46084;SDS011;31823;47.032;8.310;2023-05-07T04:16:31;8.85;;;3.80;;
46084;SDS011;31823;47.032;8.310;2023-05-07T04:18:56;5.55;;;3.85;;
46084;SDS011;31823;47.032;8.310;2023-05-07T04:21:22;7.15;;;4.10;;
46084;SDS011;31823;47.032;8.310;2023-05-07T04:23:48;5.22;;;4.07;;
46084;SDS011;31823;47.032;8.310;2023-05-07T04:26:14;3.78;;;3.42;;
46084;SDS011;31823;47.032;8.310;2023-05-07T04:28:40;4.90;;;3.65;;
46084;SDS011;31823;47.032;8.310;2023-05-07T04:31:05;5.30;;;3.90;;
46084;SDS011;31823;47.032;8.310;2023-05-07T04:33:31;8.10;;;3.90;;
46084;SDS011;31823;47.032;8.310;2023-05-07T04:35:58;7.53;;;3.88;;
46084;SDS011;31823;47.032;8.310;2023-05-07T04:38:28;5.25;;;3.33;;
46084;SDS011;31823;47.032;8.310;2023-05-07T04:40:54;6.32;;;4.20;;
46084;SDS011;31823;47.032;8.310;2023-05-07T04:43:20;6.95;;;4.50;;
46084;SDS011;31823;47.032;8.310;2023-05-07T04:45:46;6.57;;;4.00;;
46084;SDS011;31823;47.032;8.310;2023-05-07T04:48:12;5.55;;;4.38;;
46084;SDS011;31823;47.032;8.310;2023-05-07T04:50:39;8.57;;;4.18;;
46084;SDS011;31823;47.032;8.310;2023-05-07T04:53:05;8.55;;;4.95;;
46084;SDS011;31823;47.032;8.310;2023-05-07T04:55:31;5.40;;;3.78;;
46084;SDS011;31823;47.032;8.310;2023-05-07T04:57:56;6.38;;;4.55;;
46084;SDS011;31823;47.032;8.310;2023-05-07T05:00:22;5.53;;;4.38;;
46084;SDS011;31823;47.032;8.310;2023-05-07T05:02:48;5.68;;;4.57;;
46084;SDS011;31823;47.032;8.310;2023-05-07T05:05:19;5.35;;;4.63;;
46084;SDS011;31823;47.032;8.310;2023-05-07T05:07:44;5.63;;;4.32;;
46084;SDS011;31823;47.032;8.310;2023-05-07T05:10:10;7.30;;;4.10;;
46084;SDS011;31823;47.032;8.310;2023-05-07T05:12:35;8.70;;;4.38;;
46084;SDS011;31823;47.032;8.310;2023-05-07T05:15:01;4.47;;;3.95;;
46084;SDS011;31823;47.032;8.310;2023-05-07T05:17:27;4.97;;;4.20;;
46084;SDS011;31823;47.032;8.310;2023-05-07T05:19:52;4.45;;;3.67;;
46084;SDS011;31823;47.032;8.310;2023-05-07T05:22:18;11.02;;;4.38;;
46084;SDS011;31823;47.032;8.310;2023-05-07T05:24:43;7.22;;;3.90;;
46084;SDS011;31823;47.032;8.310;2023-05-07T05:27:09;6.82;;;3.92;;
46084;SDS011;31823;47.032;8.310;2023-05-07T05:29:34;9.98;;;3.92;;
46084;SDS011;31823;47.032;8.310;2023-05-07T05:32:00;7.45;;;3.83;;
46084;SDS011;31823;47.032;8.310;2023-05-07T05:34:26;4.63;;;3.75;;
46084;SDS011;31823;47.032;8.310;2023-05-07T05:36:52;4.47;;;3.85;;
46084;SDS011;31823;47.032;8.310;2023-05-07T05:39:18;11.05;;;4.85;;
46084;SDS011;31823;47.032;8.310;2023-05-07T05:41:43;8.05;;;4.07;;
46084;SDS011;31823;47.032;8.310;2023-05-07T05:44:09;9.32;;;4.32;;
46084;SDS011;31823;47.032;8.310;2023-05-07T05:46:35;5.38;;;4.10;;
46084;SDS011;31823;47.032;8.310;2023-05-07T05:49:00;8.75;;;5.10;;
46084;SDS011;31823;47.032;8.310;2023-05-07T05:51:26;4.90;;;4.00;;
46084;SDS011;31823;47.032;8.310;2023-05-07T05:53:51;9.77;;;4.53;;
46084;SDS011;31823;47.032;8.310;2023-05-07T05:56:17;5.45;;;3.97;;
46084;SDS011;31823;47.032;8.310;2023-05-07T05:58:43;11.18;;;5.07;;
46084;SDS011;31823;47.032;8.310;2023-05-07T06:01:08;8.43;;;4.07;;
46084;SDS011;31823;47.032;8.310;2023-05-07T06:03:38;4.78;;;4.05;;
46084;SDS011;31823;47.032;8.310;2023-05-07T06:06:03;6.70;;;3.95;;
46084;SDS011;31823;47.032;8.310;2023-05-07T06:08:29;8.45;;;4.25;;
46084;SDS011;31823;47.032;8.310;2023-05-07T06:10:55;9.07;;;4.35;;
46084;SDS011;31823;47.032;8.310;2023-05-07T06:13:21;8.48;;;3.85;;
46084;SDS011;31823;47.032;8.310;2023-05-07T06:15:47;8.88;;;4.85;;
46084;SDS011;31823;47.032;8.310;2023-05-07T06:18:13;8.55;;;4.03;;
46084;SDS011;31823;47.032;8.310;2023-05-07T06:20:40;6.75;;;4.10;;
46084;SDS011;31823;47.032;8.310;2023-05-07T06:23:06;7.47;;;3.63;;
46084;SDS011;31823;47.032;8.310;2023-05-07T06:25:32;6.55;;;4.07;;
46084;SDS011;31823;47.032;8.310;2023-05-07T06:27:57;7.70;;;4.18;;
46084;SDS011;31823;47.032;8.310;2023-05-07T06:30:23;6.20;;;4.07;;
46084;SDS011;31823;47.032;8.310;2023-05-07T06:32:48;5.93;;;3.90;;
46084;SDS011;31823;47.032;8.310;2023-05-07T06:35:14;4.22;;;3.83;;
46084;SDS011;31823;47.032;8.310;2023-05-07T06:37:40;7.07;;;4.53;;
46084;SDS011;31823;47.032;8.310;2023-05-07T06:40:07;6.22;;;4.32;;
46084;SDS011;31823;47.032;8.310;2023-05-07T06:42:33;7.95;;;4.30;;
46084;SDS011;31823;47.032;8.310;2023-05-07T06:45:00;6.88;;;4.68;;
46084;SDS011;31823;47.032;8.310;2023-05-07T06:47:25;12.48;;;4.90;;
46084;SDS011;31823;47.032;8.310;2023-05-07T06:49:51;10.70;;;5.43;;
46084;SDS011;31823;47.032;8.310;2023-05-07T06:52:17;8.60;;;5.00;;
46084;SDS011;31823;47.032;8.310;2023-05-07T06:54:42;8.88;;;5.15;;
46084;SDS011;31823;47.032;8.310;2023-05-07T06:57:08;11.07;;;6.07;;
46084;SDS011;31823;47.032;8.310;2023-05-07T06:59:33;11.65;;;5.75;;
46084;SDS011;31823;47.032;8.310;2023-05-07T07:01:59;12.98;;;5.32;;
46084;SDS011;31823;47.032;8.310;2023-05-07T07:04:25;10.73;;;4.93;;
46084;SDS011;31823;47.032;8.310;2023-05-07T07:06:54;7.18;;;5.25;;
46084;SDS011;31823;47.032;8.310;2023-05-07T07:09:19;7.72;;;5.43;;
46084;SDS011;31823;47.032;8.310;2023-05-07T07:11:45;7.00;;;5.22;;
46084;SDS011;31823;47.032;8.310;2023-05-07T07:14:11;9.07;;;5.03;;
46084;SDS011;31823;47.032;8.310;2023-05-07T07:16:36;11.90;;;5.25;;
46084;SDS011;31823;47.032;8.310;2023-05-07T07:19:02;6.63;;;4.85;;
46084;SDS011;31823;47.032;8.310;2023-05-07T07:21:28;6.35;;;4.57;;
46084;SDS011;31823;47.032;8.310;2023-05-07T07:23:53;6.75;;;5.00;;
46084;SDS011;31823;47.032;8.310;2023-05-07T07:26:19;7.13;;;4.78;;
46084;SDS011;31823;47.032;8.310;2023-05-07T07:28:45;9.23;;;4.45;;
46084;SDS011;31823;47.032;8.310;2023-05-07T07:31:11;6.75;;;4.50;;
46084;SDS011;31823;47.032;8.310;2023-05-07T07:33:37;7.32;;;5.45;;
46084;SDS011;31823;47.032;8.310;2023-05-07T07:36:02;11.25;;;5.18;;
46084;SDS011;31823;47.032;8.310;2023-05-07T07:38:28;9.05;;;5.13;;
46084;SDS011;31823;47.032;8.310;2023-05-07T07:40:54;5.47;;;4.78;;
46084;SDS011;31823;47.032;8.310;2023-05-07T07:43:19;8.98;;;5.15;;
46084;SDS011;31823;47.032;8.310;2023-05-07T07:45:45;5.85;;;4.25;;
46084;SDS011;31823;47.032;8.310;2023-05-07T07:48:11;6.30;;;4.15;;
46084;SDS011;31823;47.032;8.310;2023-05-07T07:50:36;6.20;;;4.60;;
46084;SDS011;31823;47.032;8.310;2023-05-07T07:53:02;6.82;;;4.88;;
46084;SDS011;31823;47.032;8.310;2023-05-07T07:55:28;6.63;;;4.28;;
46084;SDS011;31823;47.032;8.310;2023-05-07T07:57:54;6.72;;;5.03;;
46084;SDS011;31823;47.032;8.310;2023-05-07T08:00:19;5.47;;;4.50;;
46084;SDS011;31823;47.032;8.310;2023-05-07T08:02:45;6.85;;;4.90;;
46084;SDS011;31823;47.032;8.310;2023-05-07T08:05:11;5.50;;;4.30;;
46084;SDS011;31823;47.032;8.310;2023-05-07T08:07:37;5.82;;;5.13;;
46084;SDS011;31823;47.032;8.310;2023-05-07T08:10:03;6.20;;;4.40;;
46084;SDS011;31823;47.032;8.310;2023-05-07T08:12:29;8.25;;;5.18;;
46084;SDS011;31823;47.032;8.310;2023-05-07T08:14:54;10.35;;;4.50;;
46084;SDS011;31823;47.032;8.310;2023-05-07T08:17:20;8.45;;;3.90;;
46084;SDS011;31823;47.032;8.310;2023-05-07T08:19:47;7.00;;;3.90;;
46084;SDS011;31823;47.032;8.310;2023-05-07T08:22:13;4.40;;;3.58;;
46084;SDS011;31823;47.032;8.310;2023-05-07T08:24:39;4.15;;;3.42;;
46084;SDS011;31823;47.032;8.310;2023-05-07T08:27:04;6.05;;;3.97;;
46084;SDS011;31823;47.032;8.310;2023-05-07T08:29:30;5.55;;;3.30;;
46084;SDS011;31823;47.032;8.310;2023-05-07T08:31:56;7.07;;;3.20;;
46084;SDS011;31823;47.032;8.310;2023-05-07T08:34:21;6.15;;;3.05;;
46084;SDS011;31823;47.032;8.310;2023-05-07T08:36:47;6.28;;;4.00;;
46084;SDS011;31823;47.032;8.310;2023-05-07T08:39:13;5.20;;;3.42;;
46084;SDS011;31823;47.032;8.310;2023-05-07T08:41:45;5.82;;;3.50;;
46084;SDS011;31823;47.032;8.310;2023-05-07T08:44:13;4.60;;;3.60;;
46084;SDS011;31823;47.032;8.310;2023-05-07T08:46:39;5.43;;;3.60;;
46084;SDS011;31823;47.032;8.310;2023-05-07T08:49:06;4.07;;;3.42;;
46084;SDS011;31823;47.032;8.310;2023-05-07T08:51:33;7.70;;;3.70;;
46084;SDS011;31823;47.032;8.310;2023-05-07T08:53:58;4.38;;;3.72;;
46084;SDS011;31823;47.032;8.310;2023-05-07T08:56:26;4.32;;;3.75;;
46084;SDS011;31823;47.032;8.310;2023-05-07T08:58:52;6.63;;;4.40;;
46084;SDS011;31823;47.032;8.310;2023-05-07T09:01:21;7.70;;;3.95;;
46084;SDS011;31823;47.032;8.310;2023-05-07T09:03:47;5.80;;;3.78;;
46084;SDS011;31823;47.032;8.310;2023-05-07T09:06:12;8.45;;;4.07;;
46084;SDS011;31823;47.032;8.310;2023-05-07T09:08:38;4.82;;;3.42;;
46084;SDS011;31823;47.032;8.310;2023-05-07T09:11:04;5.63;;;4.13;;
46084;SDS011;31823;47.032;8.310;2023-05-07T09:13:29;6.75;;;3.90;;
46084;SDS011;31823;47.032;8.310;2023-05-07T09:15:55;5.63;;;4.32;;
46084;SDS011;31823;47.032;8.310;2023-05-07T09:18:21;4.72;;;4.13;;
46084;SDS011;31823;47.032;8.310;2023-05-07T09:20:48;4.93;;;3.90;;
46084;SDS011;31823;47.032;8.310;2023-05-07T09:23:14;5.47;;;4.28;;
46084;SDS011;31823;47.032;8.310;2023-05-07T09:25:40;4.30;;;3.60;;
46084;SDS011;31823;47.032;8.310;2023-05-07T09:28:05;7.63;;;3.72;;
46084;SDS011;31823;47.032;8.310;2023-05-07T09:30:32;4.55;;;3.72;;
46084;SDS011;31823;47.032;8.310;2023-05-07T09:32:59;3.42;;;3.03;;
46084;SDS011;31823;47.032;8.310;2023-05-07T09:35:26;7.25;;;3.38;;
46084;SDS011;31823;47.032;8.310;2023-05-07T09:37:58;4.15;;;3.55;;
46084;SDS011;31823;47.032;8.310;2023-05-07T09:40:28;4.25;;;3.75;;
46084;SDS011;31823;47.032;8.310;2023-05-07T09:42:55;5.13;;;3.40;;
46084;SDS011;31823;47.032;8.310;2023-05-07T09:45:21;7.60;;;3.50;;
46084;SDS011;31823;47.032;8.310;2023-05-07T09:47:48;7.18;;;3.25;;
46084;SDS011;31823;47.032;8.310;2023-05-07T09:50:18;5.80;;;3.03;;
46084;SDS011;31823;47.032;8.310;2023-05-07T09:52:46;8.77;;;3.50;;
46084;SDS011;31823;47.032;8.310;2023-05-07T09:55:12;9.73;;;3.50;;
46084;SDS011;31823;47.032;8.310;2023-05-07T09:57:38;6.28;;;3.55;;
46084;SDS011;31823;47.032;8.310;2023-05-07T10:00:07;7.78;;;3.58;;
46084;SDS011;31823;47.032;8.310;2023-05-07T10:02:34;7.53;;;3.78;;
46084;SDS011;31823;47.032;8.310;2023-05-07T10:05:01;6.25;;;3.35;;
46084;SDS011;31823;47.032;8.310;2023-05-07T10:07:28;4.82;;;3.38;;
46084;SDS011;31823;47.032;8.310;2023-05-07T10:09:55;7.72;;;3.67;;
46084;SDS011;31823;47.032;8.310;2023-05-07T10:12:21;5.82;;;3.30;;
46084;SDS011;31823;47.032;8.310;2023-05-07T10:14:46;4.18;;;3.50;;
46084;SDS011;31823;47.032;8.310;2023-05-07T10:17:13;5.05;;;3.72;;
46084;SDS011;31823;47.032;8.310;2023-05-07T10:19:42;7.95;;;3.90;;
46084;SDS011;31823;47.032;8.310;2023-05-07T10:22:09;5.63;;;3.70;;
46084;SDS011;31823;47.032;8.310;2023-05-07T10:24:36;5.43;;;4.00;;
46084;SDS011;31823;47.032;8.310;2023-05-07T10:27:04;5.13;;;3.35;;
46084;SDS011;31823;47.032;8.310;2023-05-07T10:29:58;3.70;;;3.17;;
46084;SDS011;31823;47.032;8.310;2023-05-07T10:32:35;7.13;;;3.38;;
46084;SDS011;31823;47.032;8.310;2023-05-07T10:35:36;5.25;;;3.28;;
46084;SDS011;31823;47.032;8.310;2023-05-07T10:38:02;7.30;;;3.40;;
46084;SDS011;31823;47.032;8.310;2023-05-07T10:40:30;7.95;;;3.42;;
46084;SDS011;31823;47.032;8.310;2023-05-07T10:42:57;4.20;;;3.72;;
46084;SDS011;31823;47.032;8.310;2023-05-07T10:45:27;6.15;;;3.35;;
46084;SDS011;31823;47.032;8.310;2023-05-07T10:48:12;6.55;;;3.38;;
46084;SDS011;31823;47.032;8.310;2023-05-07T10:50:39;7.10;;;4.05;;
46084;SDS011;31823;47.032;8.310;2023-05-07T10:53:20;5.47;;;3.83;;
46084;SDS011;31823;47.032;8.310;2023-05-07T10:55:46;4.93;;;3.58;;
46084;SDS011;31823;47.032;8.310;2023-05-07T11:00:58;7.60;;;3.35;;
46084;SDS011;31823;47.032;8.310;2023-05-07T11:03:25;6.38;;;3.55;;
46084;SDS011;31823;47.032;8.310;2023-05-07T11:17:08;5.22;;;3.33;;
46084;SDS011;31823;47.032;8.310;2023-05-07T11:25:01;6.22;;;3.85;;
46084;SDS011;31823;47.032;8.310;2023-05-07T11:27:28;5.57;;;3.60;;
46084;SDS011;31823;47.032;8.310;2023-05-07T11:29:54;5.78;;;3.97;;
46084;SDS011;31823;47.032;8.310;2023-05-07T11:32:27;5.30;;;3.20;;
46084;SDS011;31823;47.032;8.310;2023-05-07T11:34:54;6.95;;;3.70;;
46084;SDS011;31823;47.032;8.310;2023-05-07T11:37:22;5.32;;;3.65;;
46084;SDS011;31823;47.032;8.310;2023-05-07T11:39:48;5.00;;;3.63;;
46084;SDS011;31823;47.032;8.310;2023-05-07T11:42:29;3.58;;;3.22;;
46084;SDS011;31823;47.032;8.310;2023-05-07T11:44:56;3.97;;;3.58;;
46084;SDS011;31823;47.032;8.310;2023-05-07T11:47:22;4.68;;;3.63;;
46084;SDS011;31823;47.032;8.310;2023-05-07T11:49:49;6.90;;;3.20;;
46084;SDS011;31823;47.032;8.310;2023-05-07T11:52:15;4.57;;;3.42;;
46084;SDS011;31823;47.032;8.310;2023-05-07T11:54:48;4.15;;;3.17;;
46084;SDS011;31823;47.032;8.310;2023-05-07T11:59:43;7.75;;;3.75;;
46084;SDS011;31823;47.032;8.310;2023-05-07T12:02:15;4.78;;;3.95;;
46084;SDS011;31823;47.032;8.310;2023-05-07T12:04:43;6.82;;;3.97;;
46084;SDS011;31823;47.032;8.310;2023-05-07T12:07:12;4.32;;;3.35;;
46084;SDS011;31823;47.032;8.310;2023-05-07T12:09:40;5.40;;;3.25;;
46084;SDS011;31823;47.032;8.310;2023-05-07T12:12:06;7.80;;;3.30;;
46084;SDS011;31823;47.032;8.310;2023-05-07T12:14:32;7.35;;;4.60;;
46084;SDS011;31823;47.032;8.310;2023-05-07T12:17:01;4.57;;;3.50;;
46084;SDS011;31823;47.032;8.310;2023-05-07T12:19:28;4.35;;;3.20;;
46084;SDS011;31823;47.032;8.310;2023-05-07T12:21:55;4.05;;;3.60;;
46084;SDS011;31823;47.032;8.310;2023-05-07T12:24:21;5.63;;;3.75;;
46084;SDS011;31823;47.032;8.310;2023-05-07T12:26:47;5.63;;;3.78;;
46084;SDS011;31823;47.032;8.310;2023-05-07T12:29:13;7.50;;;3.85;;
46084;SDS011;31823;47.032;8.310;2023-05-07T12:31:42;6.90;;;4.43;;
46084;SDS011;31823;47.032;8.310;2023-05-07T12:34:08;7.63;;;4.90;;
46084;SDS011;31823;47.032;8.310;2023-05-07T12:36:37;6.05;;;4.15;;
46084;SDS011;31823;47.032;8.310;2023-05-07T12:39:04;5.03;;;4.28;;
46084;SDS011;31823;47.032;8.310;2023-05-07T12:41:51;6.15;;;4.72;;
46084;SDS011;31823;47.032;8.310;2023-05-07T12:44:23;9.38;;;5.10;;
46084;SDS011;31823;47.032;8.310;2023-05-07T12:46:50;8.05;;;5.20;;
46084;SDS011;31823;47.032;8.310;2023-05-07T12:49:16;8.63;;;6.32;;
46084;SDS011;31823;47.032;8.310;2023-05-07T12:51:46;11.15;;;4.93;;
46084;SDS011;31823;47.032;8.310;2023-05-07T12:54:13;12.23;;;4.70;;
46084;SDS011;31823;47.032;8.310;2023-05-07T12:56:59;9.82;;;5.00;;
46084;SDS011;31823;47.032;8.310;2023-05-07T13:02:07;9.63;;;6.00;;
46084;SDS011;31823;47.032;8.310;2023-05-07T13:04:34;7.80;;;5.15;;
46084;SDS011;31823;47.032;8.310;2023-05-07T13:07:00;7.22;;;6.20;;
46084;SDS011;31823;47.032;8.310;2023-05-07T13:09:27;6.63;;;5.93;;
46084;SDS011;31823;47.032;8.310;2023-05-07T13:11:54;7.70;;;4.93;;
46084;SDS011;31823;47.032;8.310;2023-05-07T13:14:20;5.90;;;5.28;;
46084;SDS011;31823;47.032;8.310;2023-05-07T13:16:46;9.23;;;6.70;;
46084;SDS011;31823;47.032;8.310;2023-05-07T13:19:14;9.93;;;6.85;;
46084;SDS011;31823;47.032;8.310;2023-05-07T13:21:40;8.38;;;6.03;;
46084;SDS011;31823;47.032;8.310;2023-05-07T13:24:06;7.10;;;5.45;;
46084;SDS011;31823;47.032;8.310;2023-05-07T13:26:32;10.48;;;5.90;;
46084;SDS011;31823;47.032;8.310;2023-05-07T13:28:57;8.50;;;5.80;;
46084;SDS011;31823;47.032;8.310;2023-05-07T13:31:23;6.85;;;5.63;;
46084;SDS011;31823;47.032;8.310;2023-05-07T13:33:49;6.45;;;5.80;;
46084;SDS011;31823;47.032;8.310;2023-05-07T13:36:15;9.52;;;5.30;;
46084;SDS011;31823;47.032;8.310;2023-05-07T13:38:41;8.73;;;5.70;;
46084;SDS011;31823;47.032;8.310;2023-05-07T13:41:06;6.75;;;5.43;;
46084;SDS011;31823;47.032;8.310;2023-05-07T13:43:32;5.97;;;4.88;;
46084;SDS011;31823;47.032;8.310;2023-05-07T13:46:00;6.53;;;4.78;;
46084;SDS011;31823;47.032;8.310;2023-05-07T13:48:26;9.23;;;5.75;;
46084;SDS011;31823;47.032;8.310;2023-05-07T13:50:53;7.55;;;5.00;;
46084;SDS011;31823;47.032;8.310;2023-05-07T13:53:18;10.98;;;5.05;;
46084;SDS011;31823;47.032;8.310;2023-05-07T13:55:44;7.03;;;4.45;;
46084;SDS011;31823;47.032;8.310;2023-05-07T13:58:10;4.90;;;4.40;;
46084;SDS011;31823;47.032;8.310;2023-05-07T14:00:36;6.10;;;4.68;;
46084;SDS011;31823;47.032;8.310;2023-05-07T14:03:02;7.05;;;4.40;;
46084;SDS011;31823;47.032;8.310;2023-05-07T14:05:30;5.07;;;4.30;;
46084;SDS011;31823;47.032;8.310;2023-05-07T14:08:02;11.05;;;4.82;;
46084;SDS011;31823;47.032;8.310;2023-05-07T14:10:29;6.10;;;4.53;;
46084;SDS011;31823;47.032;8.310;2023-05-07T14:12:56;5.78;;;4.40;;
46084;SDS011;31823;47.032;8.310;2023-05-07T14:15:22;7.50;;;5.07;;
46084;SDS011;31823;47.032;8.310;2023-05-07T14:17:47;5.63;;;5.13;;
46084;SDS011;31823;47.032;8.310;2023-05-07T14:20:13;6.10;;;4.32;;
46084;SDS011;31823;47.032;8.310;2023-05-07T14:22:39;5.97;;;4.68;;
46084;SDS011;31823;47.032;8.310;2023-05-07T14:25:05;5.78;;;4.82;;
46084;SDS011;31823;47.032;8.310;2023-05-07T14:27:31;5.78;;;4.53;;
46084;SDS011;31823;47.032;8.310;2023-05-07T14:29:56;5.82;;;4.88;;
46084;SDS011;31823;47.032;8.310;2023-05-07T14:32:22;10.02;;;5.00;;
46084;SDS011;31823;47.032;8.310;2023-05-07T14:34:47;5.80;;;4.68;;
46084;SDS011;31823;47.032;8.310;2023-05-07T14:37:13;5.25;;;3.85;;
46084;SDS011;31823;47.032;8.310;2023-05-07T14:39:39;7.25;;;3.75;;
46084;SDS011;31823;47.032;8.310;2023-05-07T14:42:05;6.45;;;3.88;;
46084;SDS011;31823;47.032;8.310;2023-05-07T14:44:32;4.63;;;3.65;;
46084;SDS011;31823;47.032;8.310;2023-05-07T14:46:59;3.65;;;3.33;;
46084;SDS011;31823;47.032;8.310;2023-05-07T14:49:25;5.30;;;3.60;;
46084;SDS011;31823;47.032;8.310;2023-05-07T14:51:50;4.57;;;3.83;;
46084;SDS011;31823;47.032;8.310;2023-05-07T14:54:16;4.45;;;3.70;;
46084;SDS011;31823;47.032;8.310;2023-05-07T14:56:42;4.65;;;3.25;;
46084;SDS011;31823;47.032;8.310;2023-05-07T14:59:08;4.63;;;3.75;;
46084;SDS011;31823;47.032;8.310;2023-05-07T15:01:34;3.47;;;3.17;;
46084;SDS011;31823;47.032;8.310;2023-05-07T15:04:00;5.18;;;3.88;;
46084;SDS011;31823;47.032;8.310;2023-05-07T15:06:27;11.55;;;9.30;;